Weather History for KOTH - August, 2014

Change the Weather History Date:

Wednesday, August 20, 2014

  Actual Average Record
Temperature  
Mean Temperature 65 °F 59 °F  
Max Temperature 72 °F 66 °F 89 °F (1913)
Min Temperature 57 °F 53 °F 36 °F (1913)
Degree Days  
Heating Degree Days 0 6  
Month to date heating degree days 80 120  
Since 1 June heating degree days 423 584  
Since 1 July heating degree days 226 317  
Cooling Degree Days 0 0  
Month to date cooling degree days 0 0  
Year to date cooling degree days 12 0  
Since 1 June cooling degree days 0 0  
Growing Degree Days 13 (Base 50)    
Moisture  
Dew Point 58 °F    
Average Humidity 86    
Maximum Humidity 100    
Minimum Humidity 57    
Precipitation  
Precipitation 0.00 in 0.02 in 0.33 in (2008)
Month to date precipitation 0.01 0.32  
Year to date precipitation 22.44 36.94  
Sea Level Pressure  
Sea Level Pressure 29.99 in    
Wind  
Wind Speed 9 mph (NNW)    
Max Wind Speed 22 mph    
Max Gust Speed 29 mph    
Visibility 9 miles    
Events      
T = Trace of Precipitation, MM = Missing Value Source: NWS Daily Summary

Daily Weather History Graph

Daily Weather History Graph

Search for Another Location

Airport or City:

Trip Planner

Search our weather history database for the weather conditions in past years. The results will help you decide how hot, cold, wet, or windy it might be!

Date:

Astronomy

Aug. 20, 2014 Rise Set
Actual Time 6:27 AM PDT 8:12 PM PDT
Civil Twilight 5:57 AM PDT 8:42 PM PDT
Nautical Twilight 5:20 AM PDT 9:19 PM PDT
Astronomical Twilight 4:40 AM PDT 9:58 PM PDT
Moon 2:09 AM PDT (8/20) 5:04 PM PDT (8/20)
Length of Visible Light 14h 45m
Length of Day
13h 44m
Waning Crescent, 20% of the Moon is Illuminated
Aug 20
Waning Crescent
Aug 25
New
Sep 2
First Quarter
Sep 8
Full
Sep 15
Last Quarter

Hourly Weather History & Observations

Time (PDT) Temp. Dew Point Humidity Pressure Visibility Wind Dir Wind Speed Gust Speed Precip Events Conditions
12:15 AM 60.8 °F 60.8 °F 100% 29.95 in 2.0 mi NNW 3.5 mph - N/A   Overcast
12:35 AM 59.0 °F 59.0 °F 100% 29.95 in 2.5 mi NNW 3.5 mph - N/A   Overcast
12:55 AM 59.0 °F 59.0 °F 100% 29.96 in 2.5 mi Calm Calm - N/A   Overcast
1:15 AM 60.8 °F 60.8 °F 100% 29.95 in 3.0 mi Calm Calm - N/A   Overcast
1:35 AM 60.8 °F 60.8 °F 100% 29.95 in 4.0 mi Calm Calm - N/A   Overcast
1:55 AM 60.8 °F 60.8 °F 100% 29.95 in 6.0 mi Calm Calm - N/A   Overcast
2:15 AM 60.8 °F 60.8 °F 100% 29.96 in 10.0 mi West 4.6 mph - N/A   Overcast
2:35 AM 60.8 °F 60.8 °F 100% 29.95 in 10.0 mi Calm Calm - N/A   Overcast
2:55 AM 60.8 °F 60.8 °F 100% 29.95 in 10.0 mi Calm Calm - N/A   Overcast
3:15 AM 60.8 °F 60.8 °F 100% 29.96 in 9.0 mi Calm Calm - N/A   Overcast
3:35 AM 60.8 °F 60.8 °F 100% 29.96 in 10.0 mi Calm Calm - N/A   Overcast
3:55 AM 60.8 °F 60.8 °F 100% 29.96 in 10.0 mi NNE 3.5 mph - N/A   Overcast
4:15 AM 60.8 °F 60.8 °F 100% 29.96 in 10.0 mi Calm Calm - N/A   Overcast
4:35 AM 60.8 °F 60.8 °F 100% 29.95 in 10.0 mi Calm Calm - N/A   Overcast
4:55 AM 60.8 °F 60.8 °F 100% 29.95 in 10.0 mi Calm Calm - N/A   Overcast
5:15 AM 60.8 °F 60.8 °F 100% 29.95 in 10.0 mi Calm Calm - N/A   Overcast
5:35 AM 60.8 °F 60.8 °F 100% 29.95 in 10.0 mi West 3.5 mph - N/A   Overcast
5:55 AM 60.8 °F 60.8 °F 100% 29.96 in 10.0 mi West 3.5 mph - N/A   Mostly Cloudy
6:15 AM 57.2 °F 57.2 °F 100% 29.96 in 5.0 mi Calm Calm - N/A   Mostly Cloudy
6:35 AM 57.2 °F 57.2 °F 100% 29.95 in 5.0 mi Calm Calm - N/A   Mostly Cloudy
6:55 AM 59.0 °F 59.0 °F 100% 29.96 in 7.0 mi West 3.5 mph - N/A   Overcast
7:15 AM 59.0 °F 59.0 °F 100% 29.97 in 9.0 mi Calm Calm - N/A   Overcast
7:35 AM 60.8 °F 60.8 °F 100% 29.97 in 10.0 mi NNE 3.5 mph - N/A   Overcast
7:55 AM 60.8 °F 60.8 °F 100% 29.98 in 10.0 mi NW 3.5 mph - N/A   Overcast
8:15 AM 60.8 °F 60.8 °F 100% 29.98 in 10.0 mi Calm Calm - N/A   Overcast
8:35 AM 60.8 °F 60.8 °F 100% 29.98 in 10.0 mi Calm Calm - N/A   Overcast
8:55 AM 62.6 °F 60.8 °F 94% 29.99 in 10.0 mi West 3.5 mph - N/A   Overcast
9:15 AM 62.6 °F 62.6 °F 100% 29.99 in 10.0 mi NNW 4.6 mph - N/A   Overcast
9:35 AM 62.6 °F 62.6 °F 100% 29.99 in 10.0 mi NNW 3.5 mph - N/A   Overcast
9:55 AM 64.4 °F 62.6 °F 94% 29.99 in 10.0 mi North 3.5 mph - N/A   Overcast
10:15 AM 66.2 °F 62.6 °F 88% 29.99 in 10.0 mi WNW 4.6 mph - N/A   Overcast
10:35 AM 64.4 °F 60.8 °F 88% 29.99 in 10.0 mi NW 6.9 mph - N/A   Overcast
10:55 AM 64.4 °F 62.6 °F 94% 30.00 in 10.0 mi NW 8.1 mph - N/A   Overcast
11:15 AM 66.2 °F 60.8 °F 83% 30.00 in 10.0 mi NNW 10.4 mph - N/A   Mostly Cloudy
11:35 AM 66.2 °F 60.8 °F 83% 30.00 in 10.0 mi NNW 10.4 mph - N/A   Partly Cloudy
11:55 AM 68.0 °F 60.8 °F 78% 29.99 in 10.0 mi North 12.7 mph - N/A   Clear
12:15 PM 69.8 °F 59.0 °F 68% 29.99 in 10.0 mi North 15.0 mph - N/A   Partly Cloudy
12:35 PM 68.0 °F 57.2 °F 68% 30.00 in 10.0 mi North 12.7 mph - N/A   Mostly Cloudy
12:55 PM 69.8 °F 57.2 °F 64% 30.00 in 10.0 mi North 19.6 mph - N/A   Scattered Clouds
1:15 PM 68.0 °F 57.2 °F 68% 30.00 in 10.0 mi North 23.0 mph - N/A   Clear
1:35 PM 69.8 °F 57.2 °F 64% 30.00 in 10.0 mi North 21.9 mph 27.6 mph N/A   Clear
1:55 PM 69.8 °F 57.2 °F 64% 30.00 in 10.0 mi North 21.9 mph 28.8 mph N/A   Clear
2:15 PM 69.8 °F 55.4 °F 60% 30.01 in 10.0 mi North 20.7 mph 26.5 mph N/A   Clear
2:35 PM 69.8 °F 55.4 °F 60% 30.01 in 10.0 mi North 20.7 mph 26.5 mph N/A   Clear
2:55 PM 69.8 °F 55.4 °F 60% 30.01 in 10.0 mi North 19.6 mph 26.5 mph N/A   Clear
3:15 PM 69.8 °F 55.4 °F 60% 30.01 in 10.0 mi North 18.4 mph 29.9 mph N/A   Clear
3:35 PM 69.8 °F 55.4 °F 60% 30.00 in 10.0 mi North 20.7 mph 26.5 mph N/A   Clear
3:55 PM 69.8 °F 53.6 °F 56% 30.00 in 10.0 mi North 20.7 mph 27.6 mph N/A   Clear
4:15 PM 69.8 °F 53.6 °F 56% 30.00 in 10.0 mi North 25.3 mph 28.8 mph N/A   Clear
4:35 PM 68.0 °F 55.4 °F 64% 30.00 in 10.0 mi North 18.4 mph 27.6 mph N/A   Clear
4:55 PM 66.2 °F 55.4 °F 68% 30.00 in 10.0 mi North 16.1 mph 27.6 mph N/A   Clear
5:15 PM 66.2 °F 55.4 °F 68% 30.00 in 10.0 mi North 18.4 mph 24.2 mph N/A   Clear
5:35 PM 66.2 °F 57.2 °F 73% 30.00 in 10.0 mi North 20.7 mph 27.6 mph N/A   Clear
5:55 PM 64.4 °F 57.2 °F 77% 30.00 in 10.0 mi North 20.7 mph 25.3 mph N/A   Clear
6:15 PM 64.4 °F 57.2 °F 77% 30.00 in 10.0 mi North 17.3 mph 23.0 mph N/A   Clear
6:35 PM 64.4 °F 57.2 °F 77% 30.00 in 10.0 mi North 16.1 mph 23.0 mph N/A   Clear
6:55 PM 62.6 °F 57.2 °F 82% 30.01 in 10.0 mi North 18.4 mph - N/A   Clear
7:15 PM 62.6 °F 57.2 °F 82% 30.01 in 10.0 mi North 17.3 mph 21.9 mph N/A   Clear
7:35 PM 62.6 °F 57.2 °F 82% 30.01 in 10.0 mi North 13.8 mph - N/A   Clear
7:55 PM 60.8 °F 57.2 °F 88% 30.01 in 10.0 mi North 13.8 mph 19.6 mph N/A   Clear
8:15 PM 60.8 °F 55.4 °F 82% 30.01 in 10.0 mi North 13.8 mph 19.6 mph N/A   Clear
8:35 PM 60.8 °F 55.4 °F 82% 30.01 in 10.0 mi North 10.4 mph - N/A   Clear
8:55 PM 60.8 °F 55.4 °F 82% 30.02 in 10.0 mi North 10.4 mph - N/A   Clear
9:15 PM 60.8 °F 55.4 °F 82% 30.02 in 10.0 mi North 5.8 mph - N/A   Clear
9:35 PM 60.8 °F 55.4 °F 82% 30.02 in 10.0 mi North 4.6 mph - N/A   Clear
9:55 PM 60.8 °F 55.4 °F 82% 30.03 in 10.0 mi North 6.9 mph - N/A   Clear
10:15 PM 59.0 °F 55.4 °F 88% 30.03 in 10.0 mi North 8.1 mph - N/A   Clear
10:35 PM 59.0 °F 55.4 °F 88% 30.04 in 10.0 mi North 8.1 mph - N/A   Clear
10:55 PM 57.2 °F 55.4 °F 94% 30.04 in 10.0 mi NNW 4.6 mph - N/A   Clear
11:15 PM 57.2 °F 55.4 °F 94% 30.04 in 10.0 mi Calm Calm - N/A   Clear
11:35 PM 57.2 °F 55.4 °F 94% 30.05 in 10.0 mi WNW 4.6 mph - N/A   Clear
11:55 PM 57.2 °F 55.4 °F 94% 30.05 in 10.0 mi NW 5.8 mph - N/A   Clear